createdAt,value
2019-05-15T00:00:11.971Z,102064.20
2019-05-15T00:02:40.923Z,102059.91
2019-05-15T00:05:09.406Z,102056.05
2019-05-15T00:07:39.069Z,102054.25
2019-05-15T00:10:08.884Z,102054.68
2019-05-15T00:12:39.446Z,102055.86
2019-05-15T00:15:09.276Z,102052.48
2019-05-15T00:17:39.462Z,102047.20
2019-05-15T00:20:09.969Z,102051.09
2019-05-15T00:22:38.860Z,102055.83
2019-05-15T00:25:09.408Z,102055.20
2019-05-15T00:27:38.682Z,102054.97
2019-05-15T00:30:09.111Z,102053.87
2019-05-15T00:32:39.402Z,102056.32
2019-05-15T00:35:09.364Z,102049.88
2019-05-15T00:37:38.693Z,102048.68
2019-05-15T00:40:08.780Z,102053.94
2019-05-15T00:42:38.535Z,102055.70
2019-05-15T00:45:09.463Z,102056.39
2019-05-15T00:47:39.745Z,102054.09
2019-05-15T00:50:09.142Z,102055.97
2019-05-15T00:52:39.142Z,102058.42
2019-05-15T00:55:09.516Z,102045.23
2019-05-15T00:57:39.243Z,102047.70
2019-05-15T01:00:09.952Z,102043.82
2019-05-15T01:02:38.719Z,102045.16
2019-05-15T01:05:08.525Z,102041.06
2019-05-15T01:07:38.960Z,102033.52
2019-05-15T01:10:09.835Z,102038.41
2019-05-15T01:12:38.408Z,102039.23
2019-05-15T01:15:09.176Z,102034.47
2019-05-15T03:27:59.638Z,102008.31
2019-05-15T03:33:25.046Z,102007.01
2019-05-15T03:35:45.038Z,102005.05
2019-05-15T03:38:13.531Z,102008.79
2019-05-15T03:40:42.151Z,102007.84
2019-05-15T03:43:10.457Z,102004.94
2019-05-15T03:45:40.350Z,102006.61
2019-05-15T03:48:09.466Z,102006.25
2019-05-15T03:50:40.056Z,102005.41
2019-05-15T03:53:10.278Z,102008.11
2019-05-15T03:55:40.364Z,102014.94
2019-05-15T03:58:09.870Z,102007.55
2019-05-15T04:00:39.440Z,102007.73
2019-05-15T04:03:10.898Z,102012.79
2019-05-15T04:05:39.109Z,102005.30
2019-05-15T04:08:11.066Z,102005.30
2019-05-15T04:10:39.785Z,102000.54
2019-05-15T04:13:09.416Z,101995.23
2019-05-15T04:15:39.587Z,102004.86
2019-05-15T04:18:09.213Z,102011.09
2019-05-15T04:20:40.667Z,102012.05
2019-05-15T04:23:10.165Z,102023.74
2019-05-15T04:25:39.296Z,102029.94
2019-05-15T04:28:09.873Z,102029.33
2019-05-15T04:30:39.176Z,102027.55
2019-05-15T04:33:09.343Z,102031.27
2019-05-15T04:35:39.933Z,102034.03
2019-05-15T04:38:09.423Z,102038.53
2019-05-15T04:40:39.732Z,102037.97
2019-05-15T04:43:10.387Z,102030.87
2019-05-15T04:45:39.381Z,102031.41
2019-05-15T04:48:10.079Z,102028.61
2019-05-15T04:50:40.022Z,102034.53
2019-05-15T04:53:10.752Z,102041.25
2019-05-15T04:55:40.432Z,102045.03
2019-05-15T04:58:10.015Z,102054.91
2019-05-15T05:00:50.155Z,102055.91
2019-05-15T05:03:20.191Z,102061.69
2019-05-15T05:05:49.982Z,102066.17
2019-05-15T05:08:20.117Z,102067.08
2019-05-15T05:10:49.139Z,102066.27
2019-05-15T05:13:19.756Z,102061.16
2019-05-15T05:15:49.906Z,102073.69
2019-05-15T05:18:19.022Z,102073.73
2019-05-15T05:20:48.429Z,102065.55
2019-05-15T05:23:19.290Z,102065.49
2019-05-15T05:25:49.089Z,102066.19
2019-05-15T05:28:18.127Z,102065.88
2019-05-15T05:30:48.213Z,102063.87
2019-05-15T05:33:18.128Z,102061.98
2019-05-15T05:35:48.621Z,102070.96
2019-05-15T05:38:19.298Z,102070.44
2019-05-15T05:40:49.548Z,102069.55
2019-05-15T05:43:18.614Z,102065.23
2019-05-15T05:45:49.266Z,102073.25
2019-05-15T05:48:18.777Z,102066.91
2019-05-15T05:50:49.773Z,102064.83
2019-05-15T05:53:17.248Z,102058.39
2019-05-15T05:55:45.555Z,102058.50
2019-05-15T05:58:13.861Z,102055.23
2019-05-15T06:00:48.866Z,102048.56
2019-05-15T06:03:19.545Z,102042.48
2019-05-15T06:05:49.439Z,102043.36
2019-05-15T06:08:19.589Z,102040.64
2019-05-15T06:10:49.477Z,102046.66
2019-05-15T06:13:18.573Z,102039.98
2019-05-15T06:15:48.776Z,102042.56
2019-05-15T06:18:19.461Z,102037.03
2019-05-15T06:20:49.403Z,102035.34
2019-05-15T06:23:23.736Z,102035.69
2019-05-15T06:25:49.174Z,102040.17
2019-05-15T06:28:19.544Z,102034.70
2019-05-15T06:30:48.683Z,102044.18
2019-05-15T06:33:18.702Z,102039.03
2019-05-15T06:35:48.868Z,102041.00
2019-05-15T06:38:19.253Z,102045.50
2019-05-15T06:40:49.200Z,102043.21
2019-05-15T06:43:19.224Z,102042.52
2019-05-15T06:45:48.925Z,102036.65
2019-05-15T06:48:18.451Z,102049.33
2019-05-15T06:50:48.931Z,102046.72
2019-05-15T06:53:19.223Z,102047.73
2019-05-15T06:55:48.560Z,102040.31
2019-05-15T06:58:19.029Z,102042.00
2019-05-15T07:00:48.719Z,102035.86
2019-05-15T07:03:24.803Z,102041.36
2019-05-15T07:05:47.917Z,102045.16
2019-05-15T07:08:18.249Z,102052.28
2019-05-15T07:10:48.662Z,102051.42
2019-05-15T07:13:18.267Z,102044.11
2019-05-15T07:15:49.107Z,102043.10
2019-05-15T07:18:19.373Z,102045.86
2019-05-15T07:20:48.819Z,102036.38
2019-05-15T07:23:18.547Z,102042.02
2019-05-15T07:25:49.960Z,102030.58
2019-05-15T07:28:18.330Z,102035.02
2019-05-15T07:30:49.441Z,102029.33
2019-05-15T07:33:27.977Z,102035.61
2019-05-15T07:35:49.201Z,102019.97
2019-05-15T07:38:18.295Z,102017.91
2019-05-15T07:40:54.286Z,102025.72
2019-05-15T07:43:18.162Z,102026.55
2019-05-15T07:45:53.219Z,102027.98
2019-05-15T07:48:18.693Z,102038.56
2019-05-15T07:50:49.334Z,102050.11
2019-05-15T07:53:19.275Z,102028.91
2019-05-15T07:55:49.407Z,102025.58
2019-05-15T07:58:21.419Z,102022.50
2019-05-15T08:00:49.271Z,102021.08
2019-05-15T08:03:18.377Z,102022.02
2019-05-15T08:05:56.167Z,102023.91
2019-05-15T08:08:18.460Z,102021.18
2019-05-15T08:10:49.012Z,102051.55
2019-05-15T08:13:18.516Z,102033.73
2019-05-15T08:15:48.836Z,102031.20
2019-05-15T08:18:18.008Z,102017.78
2019-05-15T08:20:49.082Z,102010.84
2019-05-15T08:23:19.152Z,102012.64
2019-05-15T08:25:48.475Z,102014.26
2019-05-15T08:28:18.984Z,102004.14
2019-05-15T08:30:49.479Z,102000.91
2019-05-15T08:33:17.939Z,101993.58
2019-05-15T08:35:51.082Z,101985.07
2019-05-15T08:38:18.180Z,101995.00
2019-05-15T08:40:49.042Z,101995.30
2019-05-15T08:43:18.423Z,102000.37
2019-05-15T08:45:49.557Z,101996.47
2019-05-15T08:48:18.496Z,101990.84
2019-05-15T08:50:48.830Z,101985.63
2019-05-15T08:53:19.398Z,101979.05
2019-05-15T08:55:48.262Z,101975.13
2019-05-15T08:58:20.258Z,101983.55
2019-05-15T09:00:51.805Z,101985.80
2019-05-15T09:03:18.338Z,101997.71
2019-05-15T09:05:48.495Z,101971.09
2019-05-15T09:08:19.336Z,101980.53
2019-05-15T09:10:49.874Z,101971.14
2019-05-15T09:13:18.988Z,101983.75
2019-05-15T09:15:48.280Z,101971.22
2019-05-15T09:18:19.879Z,101971.48
2019-05-15T09:20:49.046Z,101976.73
2019-05-15T09:23:19.442Z,101983.05
2019-05-15T09:25:49.312Z,101967.91
2019-05-15T09:28:19.020Z,101959.94
2019-05-15T09:30:48.237Z,101957.97
2019-05-15T09:33:19.550Z,101960.50
2019-05-15T09:35:49.124Z,101952.19
2019-05-15T09:38:18.490Z,101947.20
2019-05-15T09:40:50.349Z,101940.12
2019-05-15T09:43:18.144Z,101942.64
2019-05-15T09:45:49.405Z,101936.25
2019-05-15T09:48:19.757Z,101932.02
2019-05-15T09:50:49.386Z,101931.50
2019-05-15T09:53:18.868Z,101924.63
2019-05-15T09:55:49.442Z,101921.55
2019-05-15T09:58:20.382Z,101912.41
2019-05-15T10:00:52.213Z,101919.87
2019-05-15T10:03:19.024Z,101926.61
2019-05-15T10:05:48.310Z,101925.42
2019-05-15T10:08:16.840Z,101919.36
2019-05-15T10:10:45.480Z,101917.92
2019-05-15T10:13:13.765Z,101916.41
2019-05-15T10:15:42.053Z,101918.58
2019-05-15T10:18:10.431Z,101907.45
2019-05-15T10:20:38.729Z,101913.36
2019-05-15T10:23:08.781Z,101921.24
2019-05-15T10:25:38.980Z,101908.45
2019-05-15T10:28:09.968Z,101904.04
2019-05-15T10:30:39.405Z,101895.42
2019-05-15T10:33:08.598Z,101899.72
2019-05-15T10:35:39.222Z,101888.70
2019-05-15T10:38:08.861Z,101892.72
2019-05-15T10:40:41.099Z,101891.94
2019-05-15T10:43:09.010Z,101882.31
2019-05-15T10:45:42.444Z,101880.52
2019-05-15T10:48:09.358Z,101883.96
2019-05-15T10:50:38.860Z,101878.03
2019-05-15T10:53:10.995Z,101864.87
2019-05-15T10:55:39.475Z,101866.94
2019-05-15T10:58:16.558Z,101872.33
2019-05-15T11:00:37.869Z,101881.48
2019-05-15T11:03:08.701Z,101868.89
2019-05-15T11:05:41.845Z,101851.08
2019-05-15T11:08:08.291Z,101854.27
2019-05-15T11:10:38.614Z,101855.27
2019-05-15T11:13:08.821Z,101870.34
2019-05-15T11:15:40.443Z,101850.63
2019-05-15T11:18:09.097Z,101843.67
2019-05-15T11:20:40.891Z,101847.11
2019-05-15T11:23:08.618Z,101832.73
2019-05-15T11:25:37.802Z,101840.77
2019-05-15T11:28:08.234Z,101825.68
2019-05-15T11:30:39.015Z,101820.25
2019-05-15T11:33:09.366Z,101840.78
2019-05-15T11:35:40.686Z,101824.20
2019-05-15T11:38:09.974Z,101822.97
2019-05-15T11:40:38.927Z,101814.13
2019-05-15T11:43:08.551Z,101811.11
2019-05-15T11:45:39.011Z,101810.34
2019-05-15T11:48:09.048Z,101804.11
2019-05-15T11:50:39.917Z,101794.56
2019-05-15T11:53:08.732Z,101788.22
2019-05-15T11:55:38.659Z,101797.89
2019-05-15T11:58:09.360Z,101798.88
2019-05-15T12:00:38.420Z,101807.39
2019-05-15T12:03:08.920Z,101792.77
2019-05-15T12:05:38.608Z,101789.03
2019-05-15T12:08:09.073Z,101775.56
2019-05-15T12:10:38.989Z,101782.20
2019-05-15T12:13:09.803Z,101791.91
2019-05-15T12:15:38.900Z,101785.44
2019-05-15T12:18:08.724Z,101780.80
2019-05-15T12:20:38.999Z,101772.80
2019-05-15T12:23:08.961Z,101775.77
2019-05-15T12:25:39.456Z,101764.70
2019-05-15T12:28:09.705Z,101758.20
2019-05-15T12:30:40.306Z,101772.36
2019-05-15T12:33:09.277Z,101766.05
2019-05-15T12:35:39.813Z,101762.89
2019-05-15T12:38:09.961Z,101770.48
2019-05-15T13:00:39.131Z,101752.50
2019-05-15T13:03:09.042Z,101755.28
2019-05-15T13:05:39.222Z,101748.89
2019-05-15T13:08:08.458Z,101754.80
2019-05-15T13:10:38.449Z,101747.91
2019-05-15T13:13:09.606Z,101740.89
2019-05-15T13:15:40.885Z,101742.00
2019-05-15T13:18:13.874Z,101735.05
2019-05-15T13:20:38.331Z,101734.09
2019-05-15T13:23:07.844Z,101733.78
2019-05-15T13:25:38.997Z,101728.41
2019-05-15T13:28:08.575Z,101725.11
2019-05-15T13:30:40.853Z,101722.83
2019-05-15T13:33:09.391Z,101718.20
2019-05-15T13:35:38.102Z,101730.34
2019-05-15T13:38:06.447Z,101727.81
2019-05-15T13:40:38.122Z,101722.69
2019-05-15T13:43:04.833Z,101713.78
2019-05-15T13:45:33.138Z,101705.00
2019-05-15T13:48:02.210Z,101698.97
2019-05-15T13:50:30.537Z,101705.49
2019-05-15T13:52:59.014Z,101692.22
2019-05-15T13:55:35.111Z,101696.84
2019-05-15T13:57:58.019Z,101697.98
2019-05-15T14:00:28.836Z,101702.95
2019-05-15T14:02:58.456Z,101707.16
2019-05-15T14:05:29.629Z,101707.41
2019-05-15T14:07:58.317Z,101694.05
2019-05-15T14:10:28.559Z,101698.94
2019-05-15T14:12:58.394Z,101690.97
2019-05-15T14:15:26.799Z,101687.77
2019-05-15T14:17:55.078Z,101692.32
2019-05-15T14:20:23.730Z,101686.96
2019-05-15T14:22:52.025Z,101684.37
2019-05-15T14:25:20.873Z,101686.94
2019-05-15T14:27:49.163Z,101686.98
2019-05-15T14:30:18.172Z,101677.51
2019-05-15T14:32:48.432Z,101674.70
2019-05-15T14:35:18.010Z,101681.02
2019-05-15T14:38:02.269Z,101685.98
2019-05-15T14:40:17.773Z,101673.98
2019-05-15T14:42:48.573Z,101658.35
2019-05-15T14:45:18.900Z,101666.03
2019-05-15T14:47:48.752Z,101671.35
2019-05-15T14:50:16.981Z,101671.36
2019-05-15T14:52:45.272Z,101661.04
2019-05-15T14:55:13.661Z,101655.19
2019-05-15T14:57:41.942Z,101650.70
2019-05-15T15:00:10.803Z,101649.20
2019-05-15T15:02:39.426Z,101655.88
2019-05-15T15:05:09.109Z,101653.69
2019-05-15T15:07:38.334Z,101644.89
2019-05-15T15:10:07.871Z,101644.56
2019-05-15T15:12:39.169Z,101648.08
2019-05-15T15:15:09.938Z,101633.10
2019-05-15T15:17:38.902Z,101631.30
2019-05-15T15:20:08.077Z,101652.09
2019-05-15T15:22:39.151Z,101630.66
2019-05-15T15:25:09.649Z,101629.45
2019-05-15T15:27:38.767Z,101628.83
2019-05-15T15:30:09.089Z,101622.98
2019-05-15T15:32:38.384Z,101626.66
2019-05-15T15:35:08.508Z,101629.14
2019-05-15T15:37:38.312Z,101627.14
2019-05-15T15:40:08.245Z,101622.14
2019-05-15T15:42:39.428Z,101619.66
2019-05-15T15:45:09.009Z,101606.55
2019-05-15T15:47:38.894Z,101611.34
2019-05-15T15:50:09.531Z,101613.33
2019-05-15T15:52:38.826Z,101607.69
2019-05-15T15:55:08.826Z,101595.07
2019-05-15T15:57:39.596Z,101609.36
2019-05-15T16:00:09.691Z,101608.20
2019-05-15T16:02:40.871Z,101590.75
2019-05-15T16:05:08.607Z,101590.92
2019-05-15T16:07:38.026Z,101590.41
2019-05-15T16:10:08.350Z,101590.24
2019-05-15T16:12:38.791Z,101587.36
2019-05-15T16:15:09.286Z,101591.02
2019-05-15T16:17:38.388Z,101597.22
2019-05-15T16:20:08.595Z,101589.91
2019-05-15T16:22:38.240Z,101582.91
2019-05-15T16:25:09.799Z,101595.06
2019-05-15T16:27:38.576Z,101584.44
2019-05-15T16:30:09.335Z,101589.44
2019-05-15T16:32:38.871Z,101580.76
2019-05-15T16:35:09.105Z,101570.20
2019-05-15T16:37:38.723Z,101572.68
2019-05-15T16:40:08.284Z,101565.89
2019-05-15T16:42:38.541Z,101567.05
2019-05-15T16:45:09.608Z,101564.14
2019-05-15T16:47:38.873Z,101567.80
2019-05-15T16:50:09.031Z,101568.48
2019-05-15T16:52:38.792Z,101563.02
2019-05-15T16:55:09.529Z,101562.48
2019-05-15T16:57:38.776Z,101554.19
2019-05-15T17:00:09.494Z,101560.66
2019-05-15T17:02:39.234Z,101565.47
2019-05-15T17:05:08.325Z,101553.52
2019-05-15T17:07:38.723Z,101557.43
2019-05-15T17:10:08.346Z,101561.41
2019-05-15T17:12:38.772Z,101558.20
2019-05-15T17:15:08.637Z,101561.66
2019-05-15T17:17:38.858Z,101555.33
2019-05-15T17:20:09.706Z,101556.66
2019-05-15T17:22:38.147Z,101560.65
2019-05-15T17:25:09.210Z,101561.81
2019-05-15T17:27:36.797Z,101556.04
2019-05-15T17:30:08.954Z,101553.58
2019-05-15T17:32:38.805Z,101544.14
2019-05-15T17:35:09.915Z,101544.14
2019-05-15T17:37:38.042Z,101547.31
2019-05-15T17:40:07.968Z,101543.86
2019-05-15T17:42:38.873Z,101546.88
2019-05-15T17:45:09.113Z,101549.20
2019-05-15T17:47:38.726Z,101546.72
2019-05-15T17:50:08.467Z,101551.38
2019-05-15T17:52:38.654Z,101543.23
2019-05-15T17:55:07.240Z,101544.23
2019-05-15T17:57:38.312Z,101549.88
2019-05-15T18:00:12.247Z,101554.52
2019-05-15T18:02:38.953Z,101552.53
2019-05-15T18:05:08.217Z,101547.23
2019-05-15T18:07:38.721Z,101541.89
2019-05-15T18:10:08.368Z,101548.34
2019-05-15T18:12:38.808Z,101544.15
2019-05-15T18:15:09.039Z,101541.81
2019-05-15T18:17:39.156Z,101542.78
2019-05-15T18:20:09.777Z,101540.30
2019-05-15T18:22:39.059Z,101541.27
2019-05-15T18:25:09.098Z,101543.91
2019-05-15T18:27:38.789Z,101537.59
2019-05-15T18:30:09.306Z,101540.23
2019-05-15T18:32:40.970Z,101543.70
2019-05-15T18:35:09.602Z,101539.53
2019-05-15T18:37:39.264Z,101538.02
2019-05-15T18:40:10.296Z,101534.98
2019-05-15T18:42:39.285Z,101539.58
2019-05-15T18:45:08.197Z,101536.72
2019-05-15T18:47:38.681Z,101535.02
2019-05-15T18:50:12.743Z,101534.17
2019-05-15T18:52:38.327Z,101531.48
2019-05-15T18:55:08.025Z,101531.91
2019-05-15T18:57:38.574Z,101535.31
2019-05-15T19:00:09.019Z,101535.44
2019-05-15T19:02:39.207Z,101536.05
2019-05-15T19:05:08.365Z,101539.17
2019-05-15T19:07:38.389Z,101540.97
2019-05-15T19:10:08.724Z,101538.43
2019-05-15T19:12:37.841Z,101531.28
2019-05-15T19:15:09.270Z,101533.72
2019-05-15T19:17:38.770Z,101539.95
2019-05-15T19:20:08.539Z,101538.06
2019-05-15T19:22:40.715Z,101540.69
2019-05-15T19:25:08.808Z,101538.83
2019-05-15T19:27:39.354Z,101537.61
2019-05-15T19:30:09.266Z,101540.03
2019-05-15T19:32:38.730Z,101539.30
2019-05-15T19:35:08.017Z,101539.77
2019-05-15T19:37:38.330Z,101537.58
2019-05-15T19:40:07.488Z,101534.70
2019-05-15T19:42:38.167Z,101531.02
2019-05-15T19:45:08.603Z,101532.11
2019-05-15T19:47:38.729Z,101536.87
2019-05-15T19:50:08.611Z,101536.62
2019-05-15T19:52:37.018Z,101535.69
2019-05-15T19:55:08.572Z,101527.77
2019-05-15T19:57:35.828Z,101528.50
2019-05-15T20:00:08.524Z,101531.06
2019-05-15T20:02:38.129Z,101527.34
2019-05-15T20:05:09.198Z,101523.45
2019-05-15T20:07:39.011Z,101524.08
2019-05-15T20:10:08.236Z,101529.64
2019-05-15T20:12:39.091Z,101526.83
2019-05-15T20:15:09.205Z,101524.19
2019-05-15T20:17:38.673Z,101534.76
2019-05-15T20:20:09.057Z,101548.75
2019-05-15T20:22:40.192Z,101540.28
2019-05-15T20:25:08.559Z,101545.48
2019-05-15T20:27:39.038Z,101545.48
2019-05-15T20:30:08.682Z,101539.53
2019-05-15T20:32:38.655Z,101538.33
2019-05-15T20:35:08.580Z,101536.19
2019-05-15T20:37:39.011Z,101535.30
2019-05-15T20:40:09.145Z,101538.56
2019-05-15T20:42:38.341Z,101543.17
2019-05-15T20:45:12.059Z,101545.89
2019-05-15T20:47:39.099Z,101531.59
2019-05-15T20:50:08.733Z,101535.55
2019-05-15T20:52:39.300Z,101534.79
2019-05-15T20:55:09.024Z,101543.48
2019-05-15T20:57:38.479Z,101535.63
2019-05-15T21:00:09.241Z,101533.91
2019-05-15T21:02:38.118Z,101539.20
2019-05-15T21:05:08.818Z,101536.95
2019-05-15T21:07:39.930Z,101540.18
2019-05-15T21:10:08.721Z,101539.63
2019-05-15T21:12:40.457Z,101539.41
2019-05-15T21:15:08.614Z,101542.33
2019-05-15T21:17:39.430Z,101532.04
2019-05-15T21:20:09.382Z,101528.69
2019-05-15T21:22:39.889Z,101525.22
2019-05-15T21:25:08.084Z,101522.58
2019-05-15T21:27:41.257Z,101517.45
2019-05-15T21:30:08.957Z,101514.48
2019-05-15T21:32:38.260Z,101511.22
2019-05-15T21:35:09.152Z,101508.03
2019-05-15T21:37:38.816Z,101509.50
2019-05-15T21:40:08.342Z,101504.98
2019-05-15T21:42:39.016Z,101509.38
2019-05-15T21:45:14.178Z,101510.03
2019-05-15T21:47:38.730Z,101508.80
2019-05-15T21:50:08.066Z,101509.41
2019-05-15T21:52:39.220Z,101508.52
2019-05-15T21:55:09.427Z,101507.46
2019-05-15T21:57:40.361Z,101504.60
2019-05-15T22:00:34.353Z,101498.89
2019-05-15T22:03:03.173Z,101504.29
2019-05-15T22:05:31.554Z,101501.84
2019-05-15T22:08:00.170Z,101497.59
2019-05-15T22:10:29.322Z,101489.05
2019-05-15T22:12:58.949Z,101485.63
2019-05-15T22:15:28.528Z,101494.69
2019-05-15T22:17:57.359Z,101490.44
2019-05-15T22:20:30.126Z,101483.88
2019-05-15T22:22:55.888Z,101478.05
2019-05-15T22:25:24.161Z,101480.11
2019-05-15T22:27:52.483Z,101474.47
2019-05-15T22:30:21.219Z,101469.34
2019-05-15T22:32:49.929Z,101471.64
2019-05-15T22:35:18.963Z,101466.00
2019-05-15T22:37:49.322Z,101463.59
2019-05-15T22:40:18.306Z,101462.02
2019-05-15T22:42:48.620Z,101460.92
2019-05-15T22:45:18.370Z,101467.25
2019-05-15T22:47:48.155Z,101456.44
2019-05-15T22:50:18.907Z,101448.61
2019-05-15T22:52:49.205Z,101452.98
2019-05-15T22:55:18.260Z,101453.77
2019-05-15T22:57:48.178Z,101455.38
2019-05-15T23:00:17.307Z,101449.02
2019-05-15T23:02:48.537Z,101457.97
2019-05-15T23:05:24.994Z,101452.77
2019-05-15T23:07:48.205Z,101456.80
2019-05-15T23:10:16.130Z,101451.90
2019-05-15T23:12:44.432Z,101447.80
2019-05-15T23:15:13.258Z,101446.33
2019-05-15T23:17:41.834Z,101439.28
2019-05-15T23:20:10.662Z,101437.31
2019-05-15T23:22:38.957Z,101439.83
2019-05-15T23:25:07.514Z,101440.17
2019-05-15T23:27:37.970Z,101436.92
2019-05-15T23:30:08.692Z,101439.34
2019-05-15T23:32:39.178Z,101438.09
2019-05-15T23:35:07.119Z,101429.64
2019-05-15T23:37:35.420Z,101424.77
2019-05-15T23:40:08.543Z,101432.78
2019-05-15T23:42:38.876Z,101420.69
2019-05-15T23:45:06.659Z,101425.33
2019-05-15T23:47:34.963Z,101424.16
2019-05-15T23:50:03.787Z,101422.08
2019-05-15T23:52:32.141Z,101423.61
2019-05-15T23:55:00.443Z,101416.19
2019-05-15T23:57:28.806Z,101415.55
2019-05-15T23:59:57.126Z,101410.20
